PWSweather.com
Personal Weather Stations
Station Observations
STWO1
East Side, Stillwater, OK 74075

East SideStillwater, OK 74075

Lat: 36.1242949, Lon: -97.044042

Elevation: 942

Station Type: Davis VP2

http://stillwaterweather.com

High Low Average
Temperature 57.5°F14.2°C 45.5°F7.5°C 50.2°F10.1°C
Dew Point 49.7°F9.8°C 41.6°F5.3°C 45.8°F7.7°C
Winds 13.8 mph 22.2 kmh Calm Calm 5.0 mph NW8.0 kmh NW
Wind Gusts 21.9 mph35.2 kmh -- 10.0 mph16.1 kmh
Humidity 95% 75% 85%
Pressure 30.19 in1022.4 mb 30.05 in1017.6 mb -
Precipitation 0.46 in11.7 mm - -
Hour Temp Dew Point Humidity Winds Wind Gusts Pressure Precip Precip Rate Daily Precip Total
12:00 AM 61.9°F16.6°C 50.0°F10.0°C 65% 5.8 mph N9.3 kmh N 5.8 mph9.3 kmh 30.11 in1019.6 mb - 0.00 in0.0 mm 0.00 in0.0 mm
12:10 AM 61.5°F16.4°C 50.0°F10.0°C 66% 5.8 mph NNW9.3 kmh NNW 5.8 mph9.3 kmh 30.12 in1020.0 mb - 0.00 in0.0 mm 0.00 in0.0 mm
12:20 AM 61.2°F16.2°C 49.7°F9.8°C 66% 3.5 mph N5.6 kmh N 8.1 mph13.0 kmh 30.12 in1020.0 mb - 0.00 in0.0 mm 0.00 in0.0 mm
12:30 AM 60.7°F15.9°C 50.4°F10.2°C 69% 9.2 mph NNW14.8 kmh NNW 12.7 mph20.4 kmh 30.12 in1020.0 mb - 0.00 in0.0 mm 0.00 in0.0 mm
12:40 AM 59.3°F15.2°C 50.3°F10.2°C 72% 6.9 mph N11.1 kmh N 11.5 mph18.5 kmh 30.12 in1020.0 mb - 0.00 in0.0 mm 0.00 in0.0 mm
12:50 AM 58.6°F14.8°C 50.3°F10.2°C 74% 6.9 mph NNW11.1 kmh NNW 11.5 mph18.5 kmh 30.12 in1020.0 mb - 0.00 in0.0 mm 0.00 in0.0 mm
01:00 AM 57.5°F14.2°C 49.6°F9.8°C 75% 6.9 mph NNW11.1 kmh NNW 10.4 mph16.7 kmh 30.11 in1019.6 mb - 0.00 in0.0 mm 0.00 in0.0 mm
01:10 AM 56.8°F13.8°C 49.7°F9.8°C 77% 6.9 mph NNW11.1 kmh NNW 12.7 mph20.4 kmh 30.12 in1020.0 mb - 0.00 in0.0 mm 0.00 in0.0 mm
01:20 AM 56.3°F13.5°C 49.2°F9.6°C 77% 9.2 mph NNW14.8 kmh NNW 13.8 mph22.2 kmh 30.12 in1020.0 mb - 0.00 in0.0 mm 0.00 in0.0 mm
01:30 AM 55.7°F13.2°C 49.0°F9.4°C 78% 3.5 mph NNW5.6 kmh NNW 9.2 mph14.8 kmh 30.12 in1020.0 mb - 0.00 in0.0 mm 0.00 in0.0 mm
01:40 AM 55.2°F12.9°C 48.5°F9.2°C 78% 9.2 mph NW14.8 kmh NW 16.1 mph25.9 kmh 30.12 in1020.0 mb - 0.00 in0.0 mm 0.00 in0.0 mm
01:50 AM 54.7°F12.6°C 48.3°F9.1°C 79% 6.9 mph NNW11.1 kmh NNW 11.5 mph18.5 kmh 30.12 in1020.0 mb - 0.00 in0.0 mm 0.00 in0.0 mm
02:00 AM 54.4°F12.4°C 48.1°F8.9°C 79% 6.9 mph NNW11.1 kmh NNW 11.5 mph18.5 kmh 30.12 in1020.0 mb - 0.00 in0.0 mm 0.00 in0.0 mm
02:10 AM 54.1°F12.3°C 47.7°F8.7°C 79% 6.9 mph NW11.1 kmh NW 8.1 mph13.0 kmh 30.13 in1020.3 mb - 0.00 in0.0 mm 0.00 in0.0 mm
02:20 AM 53.7°F12.1°C 47.3°F8.5°C 79% 9.2 mph NW14.8 kmh NW 13.8 mph22.2 kmh 30.14 in1020.7 mb - 0.00 in0.0 mm 0.00 in0.0 mm
02:30 AM 53.5°F11.9°C 47.2°F8.4°C 79% 6.9 mph NW11.1 kmh NW 9.2 mph14.8 kmh 30.14 in1020.7 mb - 0.00 in0.0 mm 0.00 in0.0 mm
02:40 AM 53.4°F11.9°C 47.1°F8.4°C 79% 8.1 mph NW13.0 kmh NW 11.5 mph18.5 kmh 30.14 in1020.7 mb - 0.00 in0.0 mm 0.00 in0.0 mm
02:50 AM 53.3°F11.8°C 46.6°F8.1°C 78% 13.8 mph NNW22.2 kmh NNW 17.3 mph27.8 kmh 30.13 in1020.3 mb - 0.00 in0.0 mm 0.00 in0.0 mm
03:00 AM 53.0°F11.7°C 46.4°F8.0°C 78% 12.7 mph NW20.4 kmh NW 20.7 mph33.3 kmh 30.14 in1020.7 mb - 0.00 in0.0 mm 0.00 in0.0 mm
03:10 AM 53.0°F11.7°C 46.3°F7.9°C 78% 6.9 mph NW11.1 kmh NW 11.5 mph18.5 kmh 30.14 in1020.7 mb - 0.00 in0.0 mm 0.00 in0.0 mm
03:20 AM 52.9°F11.6°C 46.2°F7.9°C 78% 8.1 mph NW13.0 kmh NW 10.4 mph16.7 kmh 30.14 in1020.7 mb - 0.00 in0.0 mm 0.00 in0.0 mm
03:30 AM 52.8°F11.6°C 46.5°F8.1°C 79% 6.9 mph NNW11.1 kmh NNW 12.7 mph20.4 kmh 30.14 in1020.7 mb - 0.00 in0.0 mm 0.00 in0.0 mm
03:40 AM 52.4°F11.3°C 45.7°F7.6°C 78% 11.5 mph NNW18.5 kmh NNW 19.6 mph31.5 kmh 30.14 in1020.7 mb - 0.00 in0.0 mm 0.00 in0.0 mm
03:50 AM 52.0°F11.1°C 45.4°F7.4°C 78% 9.2 mph NNW14.8 kmh NNW 21.9 mph35.2 kmh 30.13 in1020.3 mb - 0.00 in0.0 mm 0.00 in0.0 mm
04:00 AM 51.7°F10.9°C 45.4°F7.4°C 79% 8.1 mph NNW13.0 kmh NNW 11.5 mph18.5 kmh 30.15 in1021.0 mb - 0.00 in0.0 mm 0.00 in0.0 mm
04:10 AM 51.4°F10.8°C 45.5°F7.5°C 80% 9.2 mph NNW14.8 kmh NNW 15.0 mph24.1 kmh 30.15 in1021.0 mb - 0.00 in0.0 mm 0.00 in0.0 mm
04:20 AM 51.3°F10.7°C 46.0°F7.8°C 82% 11.5 mph NNW18.5 kmh NNW 15.0 mph24.1 kmh 30.17 in1021.7 mb - 0.00 in0.0 mm 0.00 in0.0 mm
04:30 AM 50.8°F10.4°C 46.1°F7.8°C 84% 4.6 mph NW7.4 kmh NW 10.4 mph16.7 kmh 30.17 in1021.7 mb - 0.01 in0.3 mm 0.01 in0.3 mm
04:40 AM 50.4°F10.2°C 46.4°F8.0°C 86% 9.2 mph NNW14.8 kmh NNW 15.0 mph24.1 kmh 30.15 in1021.0 mb - 0.03 in0.8 mm 0.03 in0.8 mm
04:50 AM 50.0°F10.0°C 46.3°F7.9°C 87% 4.6 mph NNW7.4 kmh NNW 10.4 mph16.7 kmh 30.15 in1021.0 mb - 0.05 in1.3 mm 0.05 in1.3 mm
05:00 AM 49.9°F9.9°C 46.5°F8.1°C 88% 5.8 mph NNW9.3 kmh NNW 10.4 mph16.7 kmh 30.16 in1021.3 mb - 0.05 in1.3 mm 0.05 in1.3 mm
05:10 AM 49.8°F9.9°C 46.7°F8.2°C 89% 8.1 mph NNW13.0 kmh NNW 13.8 mph22.2 kmh 30.15 in1021.0 mb - 0.05 in1.3 mm 0.05 in1.3 mm
05:20 AM 49.8°F9.9°C 46.7°F8.2°C 89% 6.9 mph NNW11.1 kmh NNW 9.2 mph14.8 kmh 30.16 in1021.3 mb - 0.06 in1.5 mm 0.06 in1.5 mm
05:30 AM 49.8°F9.9°C 46.7°F8.2°C 89% 3.5 mph NW5.6 kmh NW 9.2 mph14.8 kmh 30.16 in1021.3 mb - 0.06 in1.5 mm 0.07 in1.8 mm
05:40 AM 49.7°F9.8°C 46.9°F8.3°C 90% 6.9 mph NNW11.1 kmh NNW 13.8 mph22.2 kmh 30.16 in1021.3 mb - 0.05 in1.3 mm 0.08 in2.0 mm
05:50 AM 49.6°F9.8°C 46.8°F8.2°C 90% 4.6 mph N7.4 kmh N 8.1 mph13.0 kmh 30.14 in1020.7 mb - 0.04 in1.0 mm 0.09 in2.3 mm
06:00 AM 49.6°F9.8°C 46.8°F8.2°C 90% 4.6 mph N7.4 kmh N 9.2 mph14.8 kmh 30.14 in1020.7 mb - 0.05 in1.3 mm 0.10 in2.5 mm
06:10 AM 49.5°F9.7°C 46.7°F8.2°C 90% 4.6 mph NW7.4 kmh NW 5.8 mph9.3 kmh 30.14 in1020.7 mb - 0.05 in1.3 mm 0.10 in2.5 mm
06:20 AM 49.6°F9.8°C 47.1°F8.4°C 91% 5.8 mph N9.3 kmh N 10.4 mph16.7 kmh 30.15 in1021.0 mb - 0.04 in1.0 mm 0.10 in2.5 mm
06:30 AM 49.7°F9.8°C 47.2°F8.4°C 91% 8.1 mph N13.0 kmh N 12.7 mph20.4 kmh 30.14 in1020.7 mb - 0.04 in1.0 mm 0.11 in2.8 mm
06:40 AM 49.7°F9.8°C 47.2°F8.4°C 91% 2.3 mph NNW3.7 kmh NNW 9.2 mph14.8 kmh 30.16 in1021.3 mb - 0.04 in1.0 mm 0.12 in3.0 mm
06:50 AM 49.9°F9.9°C 47.3°F8.5°C 91% 2.3 mph WNW3.7 kmh WNW 4.6 mph7.4 kmh 30.18 in1022.0 mb - 0.03 in0.8 mm 0.12 in3.0 mm
07:00 AM 49.9°F9.9°C 47.4°F8.6°C 91% 4.6 mph NW7.4 kmh NW 8.1 mph13.0 kmh 30.15 in1021.0 mb - 0.03 in0.8 mm 0.13 in3.3 mm
07:10 AM 49.8°F9.9°C 47.3°F8.5°C 91% 3.5 mph NNW5.6 kmh NNW 5.8 mph9.3 kmh 30.14 in1020.7 mb - 0.09 in2.3 mm 0.19 in4.8 mm
07:20 AM 49.6°F9.8°C 47.1°F8.4°C 91% 4.6 mph NW7.4 kmh NW 11.5 mph18.5 kmh 30.18 in1022.0 mb - 0.12 in3.0 mm 0.22 in5.6 mm
07:30 AM 49.5°F9.7°C 47.3°F8.5°C 92% 2.3 mph NW3.7 kmh NW 4.6 mph7.4 kmh 30.19 in1022.4 mb - 0.15 in3.8 mm 0.26 in6.6 mm
07:40 AM 49.4°F9.7°C 47.2°F8.4°C 92% 3.5 mph NW5.6 kmh NW 10.4 mph16.7 kmh 30.19 in1022.4 mb - 0.15 in3.8 mm 0.27 in6.9 mm
07:50 AM 49.2°F9.6°C 47.0°F8.3°C 92% 2.3 mph NW3.7 kmh NW 4.6 mph7.4 kmh 30.19 in1022.4 mb - 0.17 in4.3 mm 0.29 in7.4 mm
08:00 AM 48.9°F9.4°C 46.6°F8.1°C 92% 5.8 mph NNW9.3 kmh NNW 11.5 mph18.5 kmh 30.19 in1022.4 mb - 0.20 in5.1 mm 0.33 in8.4 mm
08:10 AM 48.3°F9.1°C 46.1°F7.8°C 92% 3.5 mph NW5.6 kmh NW 5.8 mph9.3 kmh 30.19 in1022.4 mb - 0.16 in4.1 mm 0.34 in8.6 mm
08:20 AM 48.2°F9.0°C 46.0°F7.8°C 92% 3.5 mph NW5.6 kmh NW 9.2 mph14.8 kmh 30.19 in1022.4 mb - 0.14 in3.6 mm 0.35 in8.9 mm
08:30 AM 48.2°F9.0°C 46.3°F7.9°C 93% 4.6 mph NNW7.4 kmh NNW 5.8 mph9.3 kmh 30.18 in1022.0 mb - 0.10 in2.5 mm 0.35 in8.9 mm
08:40 AM 48.2°F9.0°C 46.0°F7.8°C 92% 2.3 mph NW3.7 kmh NW 2.3 mph3.7 kmh 30.18 in1022.0 mb - 0.09 in2.3 mm 0.36 in9.1 mm
08:50 AM 48.0°F8.9°C 45.8°F7.7°C 92% 3.5 mph NW5.6 kmh NW 3.5 mph5.6 kmh 30.18 in1022.0 mb - 0.08 in2.0 mm 0.37 in9.4 mm
09:00 AM 48.1°F8.9°C 45.9°F7.7°C 92% 2.3 mph NW3.7 kmh NW 3.5 mph5.6 kmh 30.19 in1022.4 mb - 0.04 in1.0 mm 0.37 in9.4 mm
09:10 AM 48.0°F8.9°C 45.8°F7.7°C 92% 3.5 mph NW5.6 kmh NW 3.5 mph5.6 kmh 30.18 in1022.0 mb - 0.04 in1.0 mm 0.37 in9.4 mm
09:20 AM 47.9°F8.8°C 45.7°F7.6°C 92% 3.5 mph NW5.6 kmh NW 3.5 mph5.6 kmh 30.18 in1022.0 mb - 0.03 in0.8 mm 0.38 in9.7 mm
09:30 AM 48.0°F8.9°C 45.8°F7.7°C 92% 2.3 mph NW3.7 kmh NW 5.8 mph9.3 kmh 30.19 in1022.4 mb - 0.04 in1.0 mm 0.39 in9.9 mm
09:40 AM 47.9°F8.8°C 45.7°F7.6°C 92% 3.5 mph NW5.6 kmh NW 8.1 mph13.0 kmh 30.19 in1022.4 mb - 0.04 in1.0 mm 0.40 in10.2 mm
09:50 AM 47.6°F8.7°C 45.4°F7.4°C 92% 6.9 mph NW11.1 kmh NW 11.5 mph18.5 kmh 30.18 in1022.0 mb - 0.03 in0.8 mm 0.40 in10.2 mm
10:00 AM 47.6°F8.7°C 45.4°F7.4°C 92% 6.9 mph NW11.1 kmh NW 11.5 mph18.5 kmh 30.18 in1022.0 mb - 0.04 in1.0 mm 0.41 in10.4 mm
10:10 AM 47.5°F8.6°C 45.3°F7.4°C 92% 8.1 mph NW13.0 kmh NW 13.8 mph22.2 kmh 30.19 in1022.4 mb - 0.04 in1.0 mm 0.41 in10.4 mm
10:20 AM 47.3°F8.5°C 45.1°F7.3°C 92% 4.6 mph NW7.4 kmh NW 9.2 mph14.8 kmh 30.19 in1022.4 mb - 0.03 in0.8 mm 0.41 in10.4 mm
10:30 AM 47.5°F8.6°C 45.3°F7.4°C 92% 3.5 mph NW5.6 kmh NW 9.2 mph14.8 kmh 30.19 in1022.4 mb - 0.02 in0.5 mm 0.41 in10.4 mm
10:40 AM 47.6°F8.7°C 45.4°F7.4°C 92% 4.6 mph NW7.4 kmh NW 10.4 mph16.7 kmh 30.18 in1022.0 mb - 0.01 in0.3 mm 0.41 in10.4 mm
10:50 AM 47.6°F8.7°C 45.4°F7.4°C 92% 3.5 mph NW5.6 kmh NW 4.6 mph7.4 kmh 30.16 in1021.3 mb - 0.02 in0.5 mm 0.42 in10.7 mm
11:00 AM 47.9°F8.8°C 45.7°F7.6°C 92% 4.6 mph NNW7.4 kmh NNW 4.6 mph7.4 kmh 30.18 in1022.0 mb - 0.02 in0.5 mm 0.43 in10.9 mm
11:10 AM 47.9°F8.8°C 45.7°F7.6°C 92% 5.8 mph NW9.3 kmh NW 8.1 mph13.0 kmh 30.18 in1022.0 mb - 0.02 in0.5 mm 0.43 in10.9 mm
11:20 AM 47.8°F8.8°C 45.6°F7.6°C 92% 5.8 mph NW9.3 kmh NW 9.2 mph14.8 kmh 30.19 in1022.4 mb - 0.02 in0.5 mm 0.43 in10.9 mm
11:30 AM 47.6°F8.7°C 45.4°F7.4°C 92% 5.8 mph NW9.3 kmh NW 11.5 mph18.5 kmh 30.17 in1021.7 mb - 0.02 in0.5 mm 0.43 in10.9 mm
11:40 AM 47.6°F8.7°C 45.4°F7.4°C 92% 6.9 mph NW11.1 kmh NW 11.5 mph18.5 kmh 30.17 in1021.7 mb - 0.03 in0.8 mm 0.44 in11.2 mm
11:50 AM 47.6°F8.7°C 45.4°F7.4°C 92% 3.5 mph NW5.6 kmh NW 11.5 mph18.5 kmh 30.19 in1022.4 mb - 0.03 in0.8 mm 0.45 in11.4 mm
12:00 PM 47.6°F8.7°C 45.4°F7.4°C 92% 5.8 mph NW9.3 kmh NW 5.8 mph9.3 kmh 30.18 in1022.0 mb - 0.02 in0.5 mm 0.45 in11.4 mm
12:10 PM 47.6°F8.7°C 45.4°F7.4°C 92% 3.5 mph NW5.6 kmh NW 4.6 mph7.4 kmh 30.17 in1021.7 mb - 0.03 in0.8 mm 0.46 in11.7 mm
12:20 PM 47.7°F8.7°C 45.5°F7.5°C 92% 5.8 mph NW9.3 kmh NW 9.2 mph14.8 kmh 30.18 in1022.0 mb - 0.03 in0.8 mm 0.46 in11.7 mm
12:30 PM 47.9°F8.8°C 45.7°F7.6°C 92% 4.6 mph NW7.4 kmh NW 8.1 mph13.0 kmh 30.17 in1021.7 mb - 0.03 in0.8 mm 0.46 in11.7 mm
12:40 PM 47.9°F8.8°C 45.7°F7.6°C 92% 4.6 mph NW7.4 kmh NW 10.4 mph16.7 kmh 30.17 in1021.7 mb - 0.02 in0.5 mm 0.46 in11.7 mm
12:50 PM 48.2°F9.0°C 46.9°F8.3°C 95% 3.5 mph NW5.6 kmh NW 8.1 mph13.0 kmh 30.16 in1021.3 mb - 0.01 in0.3 mm 0.46 in11.7 mm
01:00 PM 49.2°F9.6°C 47.0°F8.3°C 92% 1.2 mph NW1.9 kmh NW 9.2 mph14.8 kmh 30.16 in1021.3 mb - 0.01 in0.3 mm 0.46 in11.7 mm
01:10 PM 49.6°F9.8°C 47.4°F8.6°C 92% 3.5 mph W5.6 kmh W 3.5 mph5.6 kmh 30.15 in1021.0 mb - 0.00 in0.0 mm 0.46 in11.7 mm
01:20 PM 50.1°F10.1°C 47.8°F8.8°C 92% 4.6 mph NW7.4 kmh NW 17.3 mph27.8 kmh 30.15 in1021.0 mb - 0.00 in0.0 mm 0.46 in11.7 mm
01:30 PM 49.8°F9.9°C 47.3°F8.5°C 91% 8.1 mph NW13.0 kmh NW 13.8 mph22.2 kmh 30.15 in1021.0 mb - 0.00 in0.0 mm 0.46 in11.7 mm
01:40 PM 49.6°F9.8°C 46.8°F8.2°C 90% 8.1 mph NW13.0 kmh NW 11.5 mph18.5 kmh 30.14 in1020.7 mb - 0.00 in0.0 mm 0.46 in11.7 mm
01:50 PM 50.0°F10.0°C 47.2°F8.4°C 90% 4.6 mph NW7.4 kmh NW 9.2 mph14.8 kmh 30.14 in1020.7 mb - 0.00 in0.0 mm 0.46 in11.7 mm
02:00 PM 50.8°F10.4°C 47.7°F8.7°C 89% 6.9 mph NW11.1 kmh NW 11.5 mph18.5 kmh 30.14 in1020.7 mb - 0.00 in0.0 mm 0.46 in11.7 mm
02:10 PM 50.3°F10.2°C 46.9°F8.3°C 88% 4.6 mph NNW7.4 kmh NNW 11.5 mph18.5 kmh 30.14 in1020.7 mb - 0.00 in0.0 mm 0.46 in11.7 mm
02:20 PM 50.1°F10.1°C 46.4°F8.0°C 87% 9.2 mph NW14.8 kmh NW 11.5 mph18.5 kmh 30.13 in1020.3 mb - 0.00 in0.0 mm 0.46 in11.7 mm
02:30 PM 50.3°F10.2°C 46.6°F8.1°C 87% 5.8 mph NW9.3 kmh NW 11.5 mph18.5 kmh 30.13 in1020.3 mb - 0.00 in0.0 mm 0.46 in11.7 mm
02:40 PM 50.3°F10.2°C 46.3°F7.9°C 86% 9.2 mph NNW14.8 kmh NNW 15.0 mph24.1 kmh 30.13 in1020.3 mb - 0.00 in0.0 mm 0.46 in11.7 mm
02:50 PM 50.5°F10.3°C 46.2°F7.9°C 85% 4.6 mph NNW7.4 kmh NNW 10.4 mph16.7 kmh 30.12 in1020.0 mb - 0.00 in0.0 mm 0.46 in11.7 mm
03:00 PM 50.8°F10.4°C 46.5°F8.1°C 85% 3.5 mph NW5.6 kmh NW 3.5 mph5.6 kmh 30.12 in1020.0 mb - 0.00 in0.0 mm 0.46 in11.7 mm
03:10 PM 51.2°F10.7°C 46.5°F8.1°C 84% 5.8 mph NW9.3 kmh NW 9.2 mph14.8 kmh 30.12 in1020.0 mb - 0.00 in0.0 mm 0.46 in11.7 mm
03:20 PM 51.7°F10.9°C 46.7°F8.2°C 83% 8.1 mph NW13.0 kmh NW 15.0 mph24.1 kmh 30.11 in1019.6 mb - 0.00 in0.0 mm 0.46 in11.7 mm
03:30 PM 51.6°F10.9°C 46.3°F7.9°C 82% 9.2 mph NNW14.8 kmh NNW 13.8 mph22.2 kmh 30.11 in1019.6 mb - 0.00 in0.0 mm 0.46 in11.7 mm
03:40 PM 51.8°F11.0°C 46.2°F7.9°C 81% 9.2 mph NW14.8 kmh NW 15.0 mph24.1 kmh 30.11 in1019.6 mb - 0.00 in0.0 mm 0.46 in11.7 mm
03:50 PM 52.0°F11.1°C 46.3°F7.9°C 81% 6.9 mph NNW11.1 kmh NNW 15.0 mph24.1 kmh 30.11 in1019.6 mb - 0.00 in0.0 mm 0.46 in11.7 mm
04:00 PM 51.7°F10.9°C 45.7°F7.6°C 80% 8.1 mph NW13.0 kmh NW 17.3 mph27.8 kmh 30.11 in1019.6 mb - 0.00 in0.0 mm 0.46 in11.7 mm
04:10 PM 51.6°F10.9°C 45.9°F7.7°C 81% 6.9 mph NW11.1 kmh NW 10.4 mph16.7 kmh 30.11 in1019.6 mb - 0.00 in0.0 mm 0.46 in11.7 mm
04:20 PM 51.2°F10.7°C 45.6°F7.6°C 81% 5.8 mph N9.3 kmh N 6.9 mph11.1 kmh 30.10 in1019.3 mb - 0.00 in0.0 mm 0.46 in11.7 mm
04:30 PM 51.4°F10.8°C 45.8°F7.7°C 81% 9.2 mph NW14.8 kmh NW 13.8 mph22.2 kmh 30.09 in1019.0 mb - 0.00 in0.0 mm 0.46 in11.7 mm
04:40 PM 51.4°F10.8°C 45.4°F7.4°C 80% 8.1 mph NW13.0 kmh NW 13.8 mph22.2 kmh 30.09 in1019.0 mb - 0.00 in0.0 mm 0.46 in11.7 mm
04:50 PM 51.4°F10.8°C 45.4°F7.4°C 80% 9.2 mph NNW14.8 kmh NNW 16.1 mph25.9 kmh 30.09 in1019.0 mb - 0.00 in0.0 mm 0.46 in11.7 mm
05:00 PM 51.3°F10.7°C 45.4°F7.4°C 80% 9.2 mph NW14.8 kmh NW 17.3 mph27.8 kmh 30.09 in1019.0 mb - 0.00 in0.0 mm 0.46 in11.7 mm
05:10 PM 51.1°F10.6°C 45.1°F7.3°C 80% 5.8 mph NNW9.3 kmh NNW 12.7 mph20.4 kmh 30.09 in1019.0 mb - 0.00 in0.0 mm 0.46 in11.7 mm
05:20 PM 51.0°F10.6°C 45.0°F7.2°C 80% 2.3 mph NNW3.7 kmh NNW 9.2 mph14.8 kmh 30.09 in1019.0 mb - 0.00 in0.0 mm 0.46 in11.7 mm
05:30 PM 51.2°F10.7°C 45.2°F7.3°C 80% 8.1 mph NW13.0 kmh NW 12.7 mph20.4 kmh 30.08 in1018.6 mb - 0.00 in0.0 mm 0.46 in11.7 mm
05:40 PM 51.3°F10.7°C 45.0°F7.2°C 79% 8.1 mph NW13.0 kmh NW 13.8 mph22.2 kmh 30.08 in1018.6 mb - 0.00 in0.0 mm 0.46 in11.7 mm
05:50 PM 51.2°F10.7°C 45.2°F7.3°C 80% 9.2 mph NNW14.8 kmh NNW 13.8 mph22.2 kmh 30.08 in1018.6 mb - 0.00 in0.0 mm 0.46 in11.7 mm
06:00 PM 51.2°F10.7°C 44.9°F7.2°C 79% 9.2 mph NW14.8 kmh NW 12.7 mph20.4 kmh 30.08 in1018.6 mb - 0.00 in0.0 mm 0.46 in11.7 mm
06:10 PM 51.4°F10.8°C 45.1°F7.3°C 79% 6.9 mph NNW11.1 kmh NNW 11.5 mph18.5 kmh 30.08 in1018.6 mb - 0.00 in0.0 mm 0.46 in11.7 mm
06:20 PM 51.7°F10.9°C 45.1°F7.3°C 78% 9.2 mph NW14.8 kmh NW 13.8 mph22.2 kmh 30.08 in1018.6 mb - 0.00 in0.0 mm 0.46 in11.7 mm
06:30 PM 51.8°F11.0°C 45.1°F7.3°C 78% 8.1 mph NW13.0 kmh NW 13.8 mph22.2 kmh 30.08 in1018.6 mb - 0.00 in0.0 mm 0.46 in11.7 mm
06:40 PM 51.7°F10.9°C 45.1°F7.3°C 78% 8.1 mph NW13.0 kmh NW 10.4 mph16.7 kmh 30.08 in1018.6 mb - 0.00 in0.0 mm 0.46 in11.7 mm
06:50 PM 51.7°F10.9°C 45.1°F7.3°C 78% 9.2 mph NNW14.8 kmh NNW 13.8 mph22.2 kmh 30.08 in1018.6 mb - 0.00 in0.0 mm 0.46 in11.7 mm
07:00 PM 51.7°F10.9°C 45.1°F7.3°C 78% 4.6 mph N7.4 kmh N 10.4 mph16.7 kmh 30.07 in1018.3 mb - 0.00 in0.0 mm 0.46 in11.7 mm
07:10 PM 51.7°F10.9°C 45.0°F7.2°C 78% 4.6 mph NW7.4 kmh NW 8.1 mph13.0 kmh 30.07 in1018.3 mb - 0.00 in0.0 mm 0.46 in11.7 mm
07:20 PM 51.6°F10.9°C 45.3°F7.4°C 79% 5.8 mph NW9.3 kmh NW 9.2 mph14.8 kmh 30.08 in1018.6 mb - 0.00 in0.0 mm 0.46 in11.7 mm
07:30 PM 51.5°F10.8°C 45.2°F7.3°C 79% 3.5 mph NW5.6 kmh NW 8.1 mph13.0 kmh 30.08 in1018.6 mb - 0.00 in0.0 mm 0.46 in11.7 mm
07:40 PM 51.5°F10.8°C 45.2°F7.3°C 79% 4.6 mph N7.4 kmh N 11.5 mph18.5 kmh 30.07 in1018.3 mb - 0.00 in0.0 mm 0.46 in11.7 mm
07:50 PM 51.5°F10.8°C 45.2°F7.3°C 79% 9.2 mph NW14.8 kmh NW 12.7 mph20.4 kmh 30.07 in1018.3 mb - 0.00 in0.0 mm 0.46 in11.7 mm
08:00 PM 51.5°F10.8°C 45.2°F7.3°C 79% 8.1 mph N13.0 kmh N 12.7 mph20.4 kmh 30.08 in1018.6 mb - 0.00 in0.0 mm 0.46 in11.7 mm
08:10 PM 51.5°F10.8°C 45.2°F7.3°C 79% 4.6 mph NNW7.4 kmh NNW 10.4 mph16.7 kmh 30.08 in1018.6 mb - 0.00 in0.0 mm 0.46 in11.7 mm
08:20 PM 51.5°F10.8°C 45.2°F7.3°C 79% 3.5 mph NNW5.6 kmh NNW 4.6 mph7.4 kmh 30.08 in1018.6 mb - 0.00 in0.0 mm 0.46 in11.7 mm
08:30 PM 51.5°F10.8°C 45.2°F7.3°C 79% 5.8 mph NNW9.3 kmh NNW 8.1 mph13.0 kmh 30.08 in1018.6 mb - 0.00 in0.0 mm 0.46 in11.7 mm
08:40 PM 51.4°F10.8°C 45.1°F7.3°C 79% 8.1 mph N13.0 kmh N 11.5 mph18.5 kmh 30.08 in1018.6 mb - 0.00 in0.0 mm 0.46 in11.7 mm
08:50 PM 51.2°F10.7°C 44.9°F7.2°C 79% 4.6 mph N7.4 kmh N 10.4 mph16.7 kmh 30.09 in1019.0 mb - 0.00 in0.0 mm 0.46 in11.7 mm
09:00 PM 50.8°F10.4°C 44.9°F7.2°C 80% 5.8 mph N9.3 kmh N 8.1 mph13.0 kmh 30.09 in1019.0 mb - 0.00 in0.0 mm 0.46 in11.7 mm
09:10 PM 50.6°F10.3°C 44.7°F7.1°C 80% 4.6 mph NNW7.4 kmh NNW 8.1 mph13.0 kmh 30.09 in1019.0 mb - 0.00 in0.0 mm 0.46 in11.7 mm
09:20 PM 50.2°F10.1°C 44.3°F6.8°C 80% 4.6 mph N7.4 kmh N 8.1 mph13.0 kmh 30.09 in1019.0 mb - 0.00 in0.0 mm 0.46 in11.7 mm
09:30 PM 49.9°F9.9°C 44.3°F6.8°C 81% 4.6 mph NW7.4 kmh NW 8.1 mph13.0 kmh 30.09 in1019.0 mb - 0.00 in0.0 mm 0.46 in11.7 mm
09:40 PM 49.8°F9.9°C 44.2°F6.8°C 81% 4.6 mph N7.4 kmh N 10.4 mph16.7 kmh 30.08 in1018.6 mb - 0.00 in0.0 mm 0.46 in11.7 mm
09:50 PM 49.9°F9.9°C 44.3°F6.8°C 81% 1.2 mph NNE1.9 kmh NNE 1.2 mph1.9 kmh 30.09 in1019.0 mb - 0.00 in0.0 mm 0.46 in11.7 mm
10:00 PM 50.0°F10.0°C 44.4°F6.9°C 81% 3.5 mph NNW5.6 kmh NNW 5.8 mph9.3 kmh 30.09 in1019.0 mb - 0.00 in0.0 mm 0.46 in11.7 mm
10:10 PM 50.1°F10.1°C 44.2°F6.8°C 80% 2.3 mph NNW3.7 kmh NNW 4.6 mph7.4 kmh 30.08 in1018.6 mb - 0.00 in0.0 mm 0.46 in11.7 mm
10:20 PM 50.1°F10.1°C 44.2°F6.8°C 80% 2.3 mph NW3.7 kmh NW 4.6 mph7.4 kmh 30.08 in1018.6 mb - 0.00 in0.0 mm 0.46 in11.7 mm
10:30 PM 49.9°F9.9°C 44.0°F6.7°C 80% 2.3 mph NW3.7 kmh NW 6.9 mph11.1 kmh 30.08 in1018.6 mb - 0.00 in0.0 mm 0.46 in11.7 mm
10:40 PM 49.6°F9.8°C 43.7°F6.5°C 80% 2.3 mph NW3.7 kmh NW 3.5 mph5.6 kmh 30.08 in1018.6 mb - 0.00 in0.0 mm 0.46 in11.7 mm
10:50 PM 49.2°F9.6°C 43.6°F6.4°C 81% 1.2 mph NW1.9 kmh NW 2.3 mph3.7 kmh 30.07 in1018.3 mb - 0.00 in0.0 mm 0.46 in11.7 mm
11:00 PM 48.9°F9.4°C 43.6°F6.4°C 82% 2.3 mph NW3.7 kmh NW 3.5 mph5.6 kmh 30.08 in1018.6 mb - 0.00 in0.0 mm 0.46 in11.7 mm
11:10 PM 48.6°F9.2°C 43.4°F6.3°C 82% 2.3 mph NW3.7 kmh NW 3.5 mph5.6 kmh 30.08 in1018.6 mb - 0.00 in0.0 mm 0.46 in11.7 mm
11:20 PM 48.2°F9.0°C 43.3°F6.3°C 83% 1.2 mph NW1.9 kmh NW 3.5 mph5.6 kmh 30.08 in1018.6 mb - 0.00 in0.0 mm 0.46 in11.7 mm
11:30 PM 47.8°F8.8°C 43.2°F6.2°C 84% Calm Calm 4.6 mph7.4 kmh 30.08 in1018.6 mb - 0.00 in0.0 mm 0.46 in11.7 mm
11:40 PM 47.4°F8.6°C 42.8°F6.0°C 84% 1.2 mph NW1.9 kmh NW 2.3 mph3.7 kmh 30.08 in1018.6 mb - 0.00 in0.0 mm 0.46 in11.7 mm
11:50 PM 47.1°F8.4°C 42.5°F5.8°C 84% Calm Calm -- 30.07 in1018.3 mb - 0.00 in0.0 mm 0.46 in11.7 mm